Weather History for KALM - November, 2013

Change the Weather History Date:

Wednesday, November 20, 2013

  Actual Average Record
Temperature  
Mean Temperature 58 °F -  
Max Temperature 68 °F 62 °F 78 °F (2007)
Min Temperature 48 °F 33 °F 17 °F (1953)
Degree Days  
Heating Degree Days 7    
Growing Degree Days 8 (Base 50)    
Moisture  
Dew Point 34 °F    
Average Humidity 41    
Maximum Humidity 66    
Minimum Humidity 21    
Precipitation  
Precipitation 0.00 in - - ()
Sea Level Pressure  
Sea Level Pressure 29.92 in    
Wind  
Wind Speed 8 mph (SSE)    
Max Wind Speed 13 mph    
Max Gust Speed 17 mph    
Visibility 10 miles    
Events      
Averages and records for this station are not official NWS values.
T = Trace of Precipitation, MM = Missing Value Source: NWS Daily Summary

Daily Weather History Graph

Daily Weather History Graph

Search for Another Location

Airport or City:

Trip Planner

Search our weather history database for the weather conditions in past years. The results will help you decide how hot, cold, wet, or windy it might be!

Date:

Astronomy

Nov. 20, 2013 Rise Set
Actual Time 6:39 AM MST 5:00 PM MST
Civil Twilight 6:12 AM MST 5:26 PM MST
Nautical Twilight 5:42 AM MST 5:56 PM MST
Astronomical Twilight 5:13 AM MST 6:25 PM MST
Moon 7:45 PM MST (11/20) 9:05 AM MST (11/20)
Length of Visible Light 11h 13m
Length of Day
10h 20m
Waning Gibbous, 91% of the Moon is Illuminated
Nov 20
Waning Gibbous
Nov 25
Last Quarter
Dec 2
New
Dec 9
First Quarter
Dec 17
Full

Hourly Weather History & Observations

Time (MST) Temp. Dew Point Humidity Pressure Visibility Wind Dir Wind Speed Gust Speed Precip Events Conditions
12:15 AM 50.0 °F 35.6 °F 58% 29.95 in 10.0 mi Calm Calm - N/A   Clear
12:35 AM 51.8 °F 35.6 °F 54% 29.95 in 10.0 mi Calm Calm - N/A   Clear
12:55 AM 50.0 °F 35.6 °F 58% 29.94 in 10.0 mi ESE 3.5 mph - N/A   Clear
1:15 AM 48.2 °F 35.6 °F 62% 29.94 in 10.0 mi SE 5.8 mph - N/A   Clear
1:35 AM 53.6 °F 35.6 °F 51% 29.94 in 10.0 mi SSE 6.9 mph - N/A   Clear
1:55 AM 50.0 °F 37.4 °F 62% 29.93 in 10.0 mi SSE 9.2 mph - N/A   Clear
2:15 AM 48.2 °F 37.4 °F 66% 29.93 in 10.0 mi SSE 6.9 mph - N/A   Clear
2:35 AM 48.2 °F 35.6 °F 62% 29.93 in 10.0 mi SSE 8.1 mph - N/A   Clear
2:55 AM 48.2 °F 35.6 °F 62% 29.93 in 10.0 mi South 9.2 mph - N/A   Clear
3:15 AM 50.0 °F 35.6 °F 58% 29.92 in 10.0 mi South 10.4 mph - N/A   Clear
3:35 AM 48.2 °F 35.6 °F 62% 29.92 in 10.0 mi South 9.2 mph - N/A   Clear
3:55 AM 50.0 °F 37.4 °F 62% 29.92 in 10.0 mi SSE 11.5 mph - N/A   Clear
4:15 AM 51.8 °F 37.4 °F 58% 29.91 in 10.0 mi SSE 11.5 mph - N/A   Clear
4:35 AM 51.8 °F 37.4 °F 58% 29.91 in 10.0 mi SSE 11.5 mph - N/A   Clear
4:55 AM 53.6 °F 37.4 °F 54% 29.91 in 10.0 mi SSE 9.2 mph - N/A   Clear
5:15 AM 50.0 °F 37.4 °F 62% 29.91 in 10.0 mi South 10.4 mph - N/A   Clear
5:35 AM 50.0 °F 37.4 °F 62% 29.92 in 10.0 mi SSE 10.4 mph - N/A   Clear
5:55 AM 50.0 °F 35.6 °F 58% 29.93 in 10.0 mi SE 3.5 mph - N/A   Clear
6:15 AM 50.0 °F 37.4 °F 62% 29.93 in 10.0 mi SSE 8.1 mph - N/A   Clear
6:35 AM 50.0 °F 37.4 °F 62% 29.93 in 10.0 mi SSE 10.4 mph - N/A   Clear
6:55 AM 48.2 °F 35.6 °F 62% 29.94 in 10.0 mi SSE 10.4 mph - N/A   Clear
7:15 AM 50.0 °F 37.4 °F 62% 29.95 in 10.0 mi SSE 8.1 mph - N/A   Clear
7:35 AM 53.6 °F 37.4 °F 54% 29.95 in 10.0 mi SSE 8.1 mph - N/A   Clear
7:55 AM 57.2 °F 37.4 °F 48% 29.96 in 10.0 mi South 10.4 mph - N/A   Clear
8:15 AM 59.0 °F 37.4 °F 45% 29.97 in 10.0 mi SSE 12.7 mph - N/A   Clear
8:35 AM 59.0 °F 37.4 °F 45% 29.97 in 10.0 mi South 10.4 mph - N/A   Clear
8:55 AM 62.6 °F 37.4 °F 39% 29.98 in 10.0 mi South 12.7 mph 16.1 mph N/A   Clear
9:15 AM 62.6 °F 35.6 °F 37% 29.98 in 10.0 mi South 11.5 mph - N/A   Clear
9:35 AM 64.4 °F 35.6 °F 34% 29.98 in 10.0 mi SSE 8.1 mph - N/A   Clear
9:55 AM 64.4 °F 35.6 °F 34% 29.99 in 10.0 mi South 9.2 mph - N/A   Clear
10:15 AM 64.4 °F 35.6 °F 34% 29.99 in 10.0 mi SSE 8.1 mph - N/A   Clear
10:35 AM 64.4 °F 35.6 °F 34% 29.99 in 10.0 mi South 6.9 mph - N/A   Clear
10:55 AM 64.4 °F 37.4 °F 37% 29.95 in 10.0 mi SE 9.2 mph - N/A   Clear
11:15 AM 64.4 °F 33.8 °F 32% 29.95 in 10.0 mi South 9.2 mph - N/A   Clear
11:35 AM 64.4 °F 35.6 °F 34% 29.92 in 10.0 mi SSE 9.2 mph - N/A   Clear
11:55 AM 68.0 °F 32.0 °F 26% 29.93 in 10.0 mi South 11.5 mph - N/A   Clear
12:15 PM 68.0 °F 32.0 °F 26% 29.93 in 10.0 mi SSW 10.4 mph 17.3 mph N/A   Clear
12:35 PM 68.0 °F 32.0 °F 26% 29.91 in 10.0 mi SSW 9.2 mph - N/A   Clear
12:55 PM 68.0 °F 28.4 °F 23% 29.90 in 10.0 mi WSW 11.5 mph - N/A   Clear
1:15 PM 68.0 °F 28.4 °F 23% 29.90 in 10.0 mi SW 10.4 mph 16.1 mph N/A   Clear
1:35 PM 68.0 °F 28.4 °F 23% 29.90 in 10.0 mi SW 9.2 mph - N/A   Clear
1:55 PM 68.0 °F 28.4 °F 23% 29.89 in 10.0 mi South 4.6 mph - N/A   Clear
2:15 PM 68.0 °F 28.4 °F 23% 29.88 in 10.0 mi South 6.9 mph - N/A   Partly Cloudy
2:35 PM 68.0 °F 26.6 °F 21% 29.89 in 10.0 mi South 9.2 mph - N/A   Scattered Clouds
2:55 PM 68.0 °F 28.4 °F 23% 29.88 in 10.0 mi South 8.1 mph - N/A   Scattered Clouds
3:15 PM 68.0 °F 28.4 °F 23% 29.88 in 10.0 mi SW 8.1 mph - N/A   Mostly Cloudy
3:35 PM 68.0 °F 28.4 °F 23% 29.88 in 10.0 mi SSW 6.9 mph - N/A   Mostly Cloudy
3:55 PM 68.0 °F 28.4 °F 23% 29.88 in 10.0 mi South 4.6 mph - N/A   Partly Cloudy
4:15 PM 68.0 °F 28.4 °F 23% 29.88 in 10.0 mi South 9.2 mph - N/A   Clear
4:35 PM 66.2 °F 28.4 °F 24% 29.89 in 10.0 mi SSW 11.5 mph - N/A   Clear
4:55 PM 64.4 °F 30.2 °F 28% 29.89 in 10.0 mi South 9.2 mph - N/A   Partly Cloudy
5:15 PM 62.6 °F 30.2 °F 30% 29.89 in 10.0 mi South 9.2 mph - N/A   Partly Cloudy
5:35 PM 60.8 °F 30.2 °F 31% 29.90 in 10.0 mi South 10.4 mph - N/A   Clear
5:55 PM 59.0 °F 32.0 °F 36% 29.90 in 10.0 mi SSE 8.1 mph - N/A   Clear
6:15 PM 59.0 °F 32.0 °F 36% 29.90 in 10.0 mi SSE 9.2 mph - N/A   Clear
6:35 PM 59.0 °F 35.6 °F 42% 29.90 in 10.0 mi SE 9.2 mph - N/A   Clear
6:55 PM 59.0 °F 33.8 °F 39% 29.89 in 10.0 mi SE 8.1 mph - N/A   Clear
7:15 PM 60.8 °F 33.8 °F 36% 29.89 in 10.0 mi SE 9.2 mph - N/A   Clear
7:35 PM 60.8 °F 32.0 °F 34% 29.90 in 10.0 mi SSE 8.1 mph - N/A   Clear
7:55 PM 60.8 °F 32.0 °F 34% 29.91 in 10.0 mi SSE 8.1 mph - N/A   Clear
8:15 PM 59.0 °F 32.0 °F 36% 29.91 in 10.0 mi SSE 8.1 mph - N/A   Clear
8:35 PM 62.6 °F 32.0 °F 32% 29.92 in 10.0 mi SSE 10.4 mph - N/A   Scattered Clouds
8:55 PM 62.6 °F 32.0 °F 32% 29.92 in 10.0 mi SSE 9.2 mph - N/A   Partly Cloudy
9:15 PM 60.8 °F 32.0 °F 34% 29.92 in 10.0 mi SSE 11.5 mph - N/A   Scattered Clouds
9:35 PM 62.6 °F 33.8 °F 34% 29.92 in 10.0 mi SSE 12.7 mph - N/A   Partly Cloudy
9:55 PM 60.8 °F 35.6 °F 39% 29.92 in 10.0 mi SSE 11.5 mph - N/A   Clear
10:15 PM 62.6 °F 35.6 °F 37% 29.92 in 10.0 mi SSE 12.7 mph - N/A   Clear
10:35 PM 60.8 °F 35.6 °F 39% 29.93 in 10.0 mi South 10.4 mph - N/A   Clear
10:55 PM 59.0 °F 37.4 °F 45% 29.93 in 10.0 mi South 9.2 mph - N/A   Clear
11:15 PM 60.8 °F 37.4 °F 42% 29.93 in 10.0 mi SSE 12.7 mph - N/A   Clear
11:35 PM 60.8 °F 37.4 °F 42% 29.94 in 10.0 mi SSE 12.7 mph - N/A   Clear
11:55 PM 59.0 °F 37.4 °F 45% 29.94 in 10.0 mi SSE 10.4 mph - N/A   Clear